sensor_id;sensor_type;location;lat;lon;timestamp;P1;durP1;ratioP1;P2;durP2;ratioP2
73264;SDS011;61493;51.008;14.088;2023-07-28T00:02:16;10.33;;;4.77;;
73264;SDS011;61493;51.008;14.088;2023-07-28T00:04:41;9.50;;;4.53;;
73264;SDS011;61493;51.008;14.088;2023-07-28T00:07:06;9.83;;;5.33;;
73264;SDS011;61493;51.008;14.088;2023-07-28T00:09:32;7.55;;;4.10;;
73264;SDS011;61493;51.008;14.088;2023-07-28T00:11:57;9.70;;;5.50;;
73264;SDS011;61493;51.008;14.088;2023-07-28T00:14:23;8.10;;;4.88;;
73264;SDS011;61493;51.008;14.088;2023-07-28T00:16:50;6.60;;;3.67;;
73264;SDS011;61493;51.008;14.088;2023-07-28T00:19:15;7.20;;;3.80;;
73264;SDS011;61493;51.008;14.088;2023-07-28T00:21:40;7.78;;;4.90;;
73264;SDS011;61493;51.008;14.088;2023-07-28T00:24:05;7.07;;;3.83;;
73264;SDS011;61493;51.008;14.088;2023-07-28T00:26:31;7.63;;;3.75;;
73264;SDS011;61493;51.008;14.088;2023-07-28T00:28:56;8.05;;;4.10;;
73264;SDS011;61493;51.008;14.088;2023-07-28T00:31:22;8.60;;;4.35;;
73264;SDS011;61493;51.008;14.088;2023-07-28T00:33:48;6.93;;;4.03;;
73264;SDS011;61493;51.008;14.088;2023-07-28T00:36:13;7.38;;;4.20;;
73264;SDS011;61493;51.008;14.088;2023-07-28T00:38:38;8.23;;;3.75;;
73264;SDS011;61493;51.008;14.088;2023-07-28T00:41:03;6.93;;;4.07;;
73264;SDS011;61493;51.008;14.088;2023-07-28T00:43:28;9.23;;;5.38;;
73264;SDS011;61493;51.008;14.088;2023-07-28T00:45:54;6.93;;;4.30;;
73264;SDS011;61493;51.008;14.088;2023-07-28T00:48:19;6.22;;;3.25;;
73264;SDS011;61493;51.008;14.088;2023-07-28T00:50:45;5.40;;;3.33;;
73264;SDS011;61493;51.008;14.088;2023-07-28T00:53:12;5.90;;;3.17;;
73264;SDS011;61493;51.008;14.088;2023-07-28T00:55:37;6.15;;;3.40;;
73264;SDS011;61493;51.008;14.088;2023-07-28T00:58:03;6.40;;;3.20;;
73264;SDS011;61493;51.008;14.088;2023-07-28T01:00:28;5.97;;;3.10;;
73264;SDS011;61493;51.008;14.088;2023-07-28T01:02:53;6.72;;;3.65;;
73264;SDS011;61493;51.008;14.088;2023-07-28T01:05:19;4.75;;;2.78;;
73264;SDS011;61493;51.008;14.088;2023-07-28T01:10:46;6.50;;;3.25;;
73264;SDS011;61493;51.008;14.088;2023-07-28T01:13:11;5.32;;;3.28;;
73264;SDS011;61493;51.008;14.088;2023-07-28T01:15:36;6.23;;;2.97;;
73264;SDS011;61493;51.008;14.088;2023-07-28T01:18:02;7.23;;;2.97;;
73264;SDS011;61493;51.008;14.088;2023-07-28T01:20:29;5.13;;;2.83;;
73264;SDS011;61493;51.008;14.088;2023-07-28T01:25:36;5.30;;;2.55;;
73264;SDS011;61493;51.008;14.088;2023-07-28T01:28:04;5.72;;;2.80;;
73264;SDS011;61493;51.008;14.088;2023-07-28T01:30:29;4.38;;;2.53;;
73264;SDS011;61493;51.008;14.088;2023-07-28T01:32:55;4.43;;;2.70;;
73264;SDS011;61493;51.008;14.088;2023-07-28T01:35:21;3.92;;;2.20;;
73264;SDS011;61493;51.008;14.088;2023-07-28T01:37:46;6.82;;;3.35;;
73264;SDS011;61493;51.008;14.088;2023-07-28T01:40:15;4.85;;;2.35;;
73264;SDS011;61493;51.008;14.088;2023-07-28T01:42:40;4.68;;;2.55;;
73264;SDS011;61493;51.008;14.088;2023-07-28T01:45:06;5.93;;;2.03;;
73264;SDS011;61493;51.008;14.088;2023-07-28T01:47:31;6.78;;;2.50;;
73264;SDS011;61493;51.008;14.088;2023-07-28T01:49:56;6.40;;;2.92;;
73264;SDS011;61493;51.008;14.088;2023-07-28T01:52:21;6.63;;;2.50;;
73264;SDS011;61493;51.008;14.088;2023-07-28T01:54:47;3.58;;;2.13;;
73264;SDS011;61493;51.008;14.088;2023-07-28T01:57:13;3.92;;;2.40;;
73264;SDS011;61493;51.008;14.088;2023-07-28T01:59:38;4.80;;;2.83;;
73264;SDS011;61493;51.008;14.088;2023-07-28T02:02:03;7.00;;;3.25;;
73264;SDS011;61493;51.008;14.088;2023-07-28T02:04:28;5.80;;;2.95;;
73264;SDS011;61493;51.008;14.088;2023-07-28T02:06:53;6.22;;;3.20;;
73264;SDS011;61493;51.008;14.088;2023-07-28T02:09:19;5.80;;;3.05;;
73264;SDS011;61493;51.008;14.088;2023-07-28T02:11:44;5.22;;;2.78;;
73264;SDS011;61493;51.008;14.088;2023-07-28T02:14:09;7.17;;;4.43;;
73264;SDS011;61493;51.008;14.088;2023-07-28T02:16:34;5.47;;;3.17;;
73264;SDS011;61493;51.008;14.088;2023-07-28T02:18:59;5.97;;;3.13;;
73264;SDS011;61493;51.008;14.088;2023-07-28T02:21:25;6.63;;;2.87;;
73264;SDS011;61493;51.008;14.088;2023-07-28T02:23:51;6.03;;;3.33;;
73264;SDS011;61493;51.008;14.088;2023-07-28T02:26:16;6.22;;;3.10;;
73264;SDS011;61493;51.008;14.088;2023-07-28T02:28:42;6.57;;;3.37;;
73264;SDS011;61493;51.008;14.088;2023-07-28T02:31:07;8.17;;;3.10;;
73264;SDS011;61493;51.008;14.088;2023-07-28T02:33:32;6.90;;;2.70;;
73264;SDS011;61493;51.008;14.088;2023-07-28T02:36:00;4.70;;;2.40;;
73264;SDS011;61493;51.008;14.088;2023-07-28T02:38:25;5.40;;;2.75;;
73264;SDS011;61493;51.008;14.088;2023-07-28T02:40:50;5.93;;;2.55;;
73264;SDS011;61493;51.008;14.088;2023-07-28T02:43:16;5.53;;;2.85;;
73264;SDS011;61493;51.008;14.088;2023-07-28T02:45:41;4.65;;;2.30;;
73264;SDS011;61493;51.008;14.088;2023-07-28T02:48:07;3.83;;;2.22;;
73264;SDS011;61493;51.008;14.088;2023-07-28T02:50:32;3.88;;;2.30;;
73264;SDS011;61493;51.008;14.088;2023-07-28T02:52:57;4.78;;;2.80;;
73264;SDS011;61493;51.008;14.088;2023-07-28T02:55:23;4.00;;;2.28;;
73264;SDS011;61493;51.008;14.088;2023-07-28T02:57:48;3.35;;;1.73;;
73264;SDS011;61493;51.008;14.088;2023-07-28T03:00:13;3.05;;;1.80;;
73264;SDS011;61493;51.008;14.088;2023-07-28T03:02:39;3.65;;;2.17;;
73264;SDS011;61493;51.008;14.088;2023-07-28T03:05:04;4.10;;;1.98;;
73264;SDS011;61493;51.008;14.088;2023-07-28T03:07:29;3.13;;;1.95;;
73264;SDS011;61493;51.008;14.088;2023-07-28T03:09:55;4.22;;;1.85;;
73264;SDS011;61493;51.008;14.088;2023-07-28T03:12:20;6.27;;;2.10;;
73264;SDS011;61493;51.008;14.088;2023-07-28T03:14:45;3.17;;;1.73;;
73264;SDS011;61493;51.008;14.088;2023-07-28T03:17:10;2.77;;;1.37;;
73264;SDS011;61493;51.008;14.088;2023-07-28T03:19:36;4.30;;;1.92;;
73264;SDS011;61493;51.008;14.088;2023-07-28T03:22:01;3.45;;;1.60;;
73264;SDS011;61493;51.008;14.088;2023-07-28T03:24:26;3.10;;;2.00;;
73264;SDS011;61493;51.008;14.088;2023-07-28T03:26:51;4.78;;;1.58;;
73264;SDS011;61493;51.008;14.088;2023-07-28T03:29:16;4.40;;;2.07;;
73264;SDS011;61493;51.008;14.088;2023-07-28T03:31:43;2.75;;;1.58;;
73264;SDS011;61493;51.008;14.088;2023-07-28T03:34:08;3.00;;;1.98;;
73264;SDS011;61493;51.008;14.088;2023-07-28T03:36:33;2.45;;;1.63;;
73264;SDS011;61493;51.008;14.088;2023-07-28T03:38:59;3.28;;;1.52;;
73264;SDS011;61493;51.008;14.088;2023-07-28T03:41:24;4.13;;;1.87;;
73264;SDS011;61493;51.008;14.088;2023-07-28T03:43:49;2.38;;;1.50;;
73264;SDS011;61493;51.008;14.088;2023-07-28T03:46:14;3.17;;;1.83;;
73264;SDS011;61493;51.008;14.088;2023-07-28T03:48:40;2.45;;;1.65;;
73264;SDS011;61493;51.008;14.088;2023-07-28T03:51:05;4.15;;;1.67;;
73264;SDS011;61493;51.008;14.088;2023-07-28T03:53:30;5.27;;;1.50;;
73264;SDS011;61493;51.008;14.088;2023-07-28T03:55:55;2.10;;;1.27;;
73264;SDS011;61493;51.008;14.088;2023-07-28T03:58:23;2.10;;;1.20;;
73264;SDS011;61493;51.008;14.088;2023-07-28T04:00:49;4.00;;;1.50;;
73264;SDS011;61493;51.008;14.088;2023-07-28T04:03:14;2.97;;;1.47;;
73264;SDS011;61493;51.008;14.088;2023-07-28T04:05:39;4.43;;;1.37;;
73264;SDS011;61493;51.008;14.088;2023-07-28T04:08:04;2.08;;;1.20;;
73264;SDS011;61493;51.008;14.088;2023-07-28T04:10:30;2.92;;;1.67;;
73264;SDS011;61493;51.008;14.088;2023-07-28T04:12:55;2.55;;;1.20;;
73264;SDS011;61493;51.008;14.088;2023-07-28T04:15:20;2.90;;;1.40;;
73264;SDS011;61493;51.008;14.088;2023-07-28T04:17:45;2.20;;;1.10;;
73264;SDS011;61493;51.008;14.088;2023-07-28T04:20:11;1.90;;;1.35;;
73264;SDS011;61493;51.008;14.088;2023-07-28T04:22:36;2.60;;;1.13;;
73264;SDS011;61493;51.008;14.088;2023-07-28T04:25:01;1.60;;;1.17;;
73264;SDS011;61493;51.008;14.088;2023-07-28T04:27:26;1.83;;;0.90;;
73264;SDS011;61493;51.008;14.088;2023-07-28T04:29:51;1.67;;;1.10;;
73264;SDS011;61493;51.008;14.088;2023-07-28T04:32:16;2.70;;;1.10;;
73264;SDS011;61493;51.008;14.088;2023-07-28T04:34:42;1.85;;;0.80;;
73264;SDS011;61493;51.008;14.088;2023-07-28T04:37:07;1.87;;;1.00;;
73264;SDS011;61493;51.008;14.088;2023-07-28T04:39:32;3.20;;;1.10;;
73264;SDS011;61493;51.008;14.088;2023-07-28T04:41:57;2.22;;;1.00;;
73264;SDS011;61493;51.008;14.088;2023-07-28T04:44:22;0.98;;;0.90;;
73264;SDS011;61493;51.008;14.088;2023-07-28T04:46:48;1.90;;;1.15;;
73264;SDS011;61493;51.008;14.088;2023-07-28T04:49:13;1.23;;;0.90;;
73264;SDS011;61493;51.008;14.088;2023-07-28T04:51:38;2.45;;;1.00;;
73264;SDS011;61493;51.008;14.088;2023-07-28T04:54:03;0.93;;;0.60;;
73264;SDS011;61493;51.008;14.088;2023-07-28T04:56:29;2.72;;;1.10;;
73264;SDS011;61493;51.008;14.088;2023-07-28T04:58:54;2.43;;;0.80;;
73264;SDS011;61493;51.008;14.088;2023-07-28T05:01:19;1.07;;;0.90;;
73264;SDS011;61493;51.008;14.088;2023-07-28T05:03:44;1.63;;;1.17;;
73264;SDS011;61493;51.008;14.088;2023-07-28T05:06:09;1.08;;;0.65;;
73264;SDS011;61493;51.008;14.088;2023-07-28T05:08:35;5.57;;;1.07;;
73264;SDS011;61493;51.008;14.088;2023-07-28T05:11:01;3.75;;;1.05;;
73264;SDS011;61493;51.008;14.088;2023-07-28T05:13:26;2.58;;;1.00;;
73264;SDS011;61493;51.008;14.088;2023-07-28T05:15:51;2.37;;;1.00;;
73264;SDS011;61493;51.008;14.088;2023-07-28T05:18:16;1.30;;;0.90;;
73264;SDS011;61493;51.008;14.088;2023-07-28T05:20:42;0.63;;;0.63;;
73264;SDS011;61493;51.008;14.088;2023-07-28T05:23:07;1.30;;;0.73;;
73264;SDS011;61493;51.008;14.088;2023-07-28T05:25:32;1.42;;;0.85;;
73264;SDS011;61493;51.008;14.088;2023-07-28T05:27:57;1.10;;;0.70;;
73264;SDS011;61493;51.008;14.088;2023-07-28T05:30:22;1.83;;;0.70;;
73264;SDS011;61493;51.008;14.088;2023-07-28T05:32:48;1.13;;;0.83;;
73264;SDS011;61493;51.008;14.088;2023-07-28T05:35:13;0.88;;;0.65;;
73264;SDS011;61493;51.008;14.088;2023-07-28T05:37:39;2.20;;;0.95;;
73264;SDS011;61493;51.008;14.088;2023-07-28T05:40:04;2.70;;;0.88;;
73264;SDS011;61493;51.008;14.088;2023-07-28T05:42:30;2.65;;;1.20;;
73264;SDS011;61493;51.008;14.088;2023-07-28T05:44:55;0.80;;;0.70;;
73264;SDS011;61493;51.008;14.088;2023-07-28T05:47:20;3.42;;;0.90;;
73264;SDS011;61493;51.008;14.088;2023-07-28T05:49:46;2.35;;;1.10;;
73264;SDS011;61493;51.008;14.088;2023-07-28T05:52:11;1.48;;;1.00;;
73264;SDS011;61493;51.008;14.088;2023-07-28T05:54:36;1.40;;;1.17;;
73264;SDS011;61493;51.008;14.088;2023-07-28T05:57:01;1.50;;;0.80;;
73264;SDS011;61493;51.008;14.088;2023-07-28T05:59:26;1.45;;;0.70;;
73264;SDS011;61493;51.008;14.088;2023-07-28T06:01:52;1.17;;;0.77;;
73264;SDS011;61493;51.008;14.088;2023-07-28T06:04:17;0.75;;;0.75;;
73264;SDS011;61493;51.008;14.088;2023-07-28T06:06:43;4.32;;;1.60;;
73264;SDS011;61493;51.008;14.088;2023-07-28T06:09:08;1.03;;;0.63;;
73264;SDS011;61493;51.008;14.088;2023-07-28T06:11:33;5.07;;;1.37;;
73264;SDS011;61493;51.008;14.088;2023-07-28T06:13:58;2.47;;;0.95;;
73264;SDS011;61493;51.008;14.088;2023-07-28T06:16:23;1.67;;;0.90;;
73264;SDS011;61493;51.008;14.088;2023-07-28T06:18:49;1.15;;;1.00;;
73264;SDS011;61493;51.008;14.088;2023-07-28T06:21:14;1.73;;;1.10;;
73264;SDS011;61493;51.008;14.088;2023-07-28T06:23:39;0.87;;;0.80;;
73264;SDS011;61493;51.008;14.088;2023-07-28T06:26:05;2.42;;;0.90;;
73264;SDS011;61493;51.008;14.088;2023-07-28T06:28:30;1.20;;;0.90;;
73264;SDS011;61493;51.008;14.088;2023-07-28T06:30:56;2.00;;;0.73;;
73264;SDS011;61493;51.008;14.088;2023-07-28T06:33:21;3.08;;;0.88;;
73264;SDS011;61493;51.008;14.088;2023-07-28T06:35:46;1.02;;;0.93;;
73264;SDS011;61493;51.008;14.088;2023-07-28T06:38:12;0.80;;;0.80;;
73264;SDS011;61493;51.008;14.088;2023-07-28T06:40:37;1.10;;;0.70;;
73264;SDS011;61493;51.008;14.088;2023-07-28T06:43:02;1.48;;;0.90;;
73264;SDS011;61493;51.008;14.088;2023-07-28T06:45:27;1.10;;;0.70;;
73264;SDS011;61493;51.008;14.088;2023-07-28T06:47:53;1.53;;;0.80;;
73264;SDS011;61493;51.008;14.088;2023-07-28T06:50:18;0.82;;;0.60;;
73264;SDS011;61493;51.008;14.088;2023-07-28T06:52:43;3.23;;;0.90;;
73264;SDS011;61493;51.008;14.088;2023-07-28T06:55:08;1.67;;;0.77;;
73264;SDS011;61493;51.008;14.088;2023-07-28T06:57:34;1.60;;;0.77;;
73264;SDS011;61493;51.008;14.088;2023-07-28T07:00:07;1.23;;;1.05;;
73264;SDS011;61493;51.008;14.088;2023-07-28T07:02:34;2.35;;;1.17;;
73264;SDS011;61493;51.008;14.088;2023-07-28T07:04:59;2.08;;;0.60;;
73264;SDS011;61493;51.008;14.088;2023-07-28T07:07:24;0.67;;;0.43;;
73264;SDS011;61493;51.008;14.088;2023-07-28T07:09:50;1.20;;;0.60;;
73264;SDS011;61493;51.008;14.088;2023-07-28T07:12:16;0.80;;;0.50;;
73264;SDS011;61493;51.008;14.088;2023-07-28T07:14:41;0.60;;;0.30;;
73264;SDS011;61493;51.008;14.088;2023-07-28T07:17:06;0.50;;;0.47;;
73264;SDS011;61493;51.008;14.088;2023-07-28T07:19:31;1.45;;;0.38;;
73264;SDS011;61493;51.008;14.088;2023-07-28T07:21:57;1.23;;;0.40;;
73264;SDS011;61493;51.008;14.088;2023-07-28T07:24:22;0.30;;;0.30;;
73264;SDS011;61493;51.008;14.088;2023-07-28T07:26:47;0.30;;;0.30;;
73264;SDS011;61493;51.008;14.088;2023-07-28T07:29:12;1.07;;;0.50;;
73264;SDS011;61493;51.008;14.088;2023-07-28T07:31:38;0.47;;;0.30;;
73264;SDS011;61493;51.008;14.088;2023-07-28T07:34:03;0.25;;;0.22;;
73264;SDS011;61493;51.008;14.088;2023-07-28T07:36:29;0.40;;;0.40;;
73264;SDS011;61493;51.008;14.088;2023-07-28T07:38:54;1.08;;;0.45;;
73264;SDS011;61493;51.008;14.088;2023-07-28T07:41:20;0.80;;;0.40;;
73264;SDS011;61493;51.008;14.088;2023-07-28T07:43:47;1.48;;;0.57;;
73264;SDS011;61493;51.008;14.088;2023-07-28T07:46:12;1.45;;;0.40;;
73264;SDS011;61493;51.008;14.088;2023-07-28T07:48:38;0.68;;;0.60;;
73264;SDS011;61493;51.008;14.088;2023-07-28T07:51:03;0.60;;;0.60;;
73264;SDS011;61493;51.008;14.088;2023-07-28T07:53:28;0.80;;;0.60;;
73264;SDS011;61493;51.008;14.088;2023-07-28T07:55:54;0.38;;;0.30;;
73264;SDS011;61493;51.008;14.088;2023-07-28T07:58:19;0.60;;;0.60;;
73264;SDS011;61493;51.008;14.088;2023-07-28T08:00:44;1.83;;;0.60;;
73264;SDS011;61493;51.008;14.088;2023-07-28T08:03:09;0.53;;;0.40;;
73264;SDS011;61493;51.008;14.088;2023-07-28T08:05:35;1.58;;;0.32;;
73264;SDS011;61493;51.008;14.088;2023-07-28T08:08:00;1.30;;;0.60;;
73264;SDS011;61493;51.008;14.088;2023-07-28T08:10:25;0.80;;;0.50;;
73264;SDS011;61493;51.008;14.088;2023-07-28T08:12:50;0.88;;;0.47;;
73264;SDS011;61493;51.008;14.088;2023-07-28T08:15:16;0.53;;;0.47;;
73264;SDS011;61493;51.008;14.088;2023-07-28T08:17:41;0.40;;;0.32;;
73264;SDS011;61493;51.008;14.088;2023-07-28T08:20:06;0.30;;;0.30;;
73264;SDS011;61493;51.008;14.088;2023-07-28T08:22:32;1.27;;;0.45;;
73264;SDS011;61493;51.008;14.088;2023-07-28T08:24:57;0.52;;;0.43;;
73264;SDS011;61493;51.008;14.088;2023-07-28T08:27:22;1.80;;;1.17;;
73264;SDS011;61493;51.008;14.088;2023-07-28T08:29:48;0.47;;;0.38;;
73264;SDS011;61493;51.008;14.088;2023-07-28T08:32:14;0.30;;;0.20;;
73264;SDS011;61493;51.008;14.088;2023-07-28T08:34:39;0.60;;;0.27;;
73264;SDS011;61493;51.008;14.088;2023-07-28T08:37:04;0.93;;;0.22;;
73264;SDS011;61493;51.008;14.088;2023-07-28T08:39:30;0.85;;;0.30;;
73264;SDS011;61493;51.008;14.088;2023-07-28T08:41:59;0.50;;;0.40;;
73264;SDS011;61493;51.008;14.088;2023-07-28T08:44:24;0.25;;;0.20;;
73264;SDS011;61493;51.008;14.088;2023-07-28T08:46:50;0.40;;;0.32;;
73264;SDS011;61493;51.008;14.088;2023-07-28T08:49:15;0.30;;;0.23;;
73264;SDS011;61493;51.008;14.088;2023-07-28T08:51:41;0.30;;;0.30;;
73264;SDS011;61493;51.008;14.088;2023-07-28T08:54:07;0.30;;;0.30;;
73264;SDS011;61493;51.008;14.088;2023-07-28T08:56:32;0.53;;;0.30;;
73264;SDS011;61493;51.008;14.088;2023-07-28T08:58:58;0.53;;;0.50;;
73264;SDS011;61493;51.008;14.088;2023-07-28T09:01:24;18.38;;;4.10;;
73264;SDS011;61493;51.008;14.088;2023-07-28T09:03:49;19.92;;;2.20;;
73264;SDS011;61493;51.008;14.088;2023-07-28T09:06:14;26.57;;;2.83;;
73264;SDS011;61493;51.008;14.088;2023-07-28T09:08:40;6.20;;;0.97;;
73264;SDS011;61493;51.008;14.088;2023-07-28T09:11:07;6.90;;;0.95;;
73264;SDS011;61493;51.008;14.088;2023-07-28T09:13:37;11.30;;;2.57;;
73264;SDS011;61493;51.008;14.088;2023-07-28T09:16:03;10.63;;;1.80;;
73264;SDS011;61493;51.008;14.088;2023-07-28T09:18:28;1.40;;;0.47;;
73264;SDS011;61493;51.008;14.088;2023-07-28T09:20:54;0.40;;;0.40;;
73264;SDS011;61493;51.008;14.088;2023-07-28T09:23:27;0.32;;;0.30;;
73264;SDS011;61493;51.008;14.088;2023-07-28T09:25:52;0.55;;;0.43;;
73264;SDS011;61493;51.008;14.088;2023-07-28T09:28:23;0.30;;;0.30;;
73264;SDS011;61493;51.008;14.088;2023-07-28T09:31:00;1.40;;;0.50;;
73264;SDS011;61493;51.008;14.088;2023-07-28T09:33:30;0.40;;;0.40;;
73264;SDS011;61493;51.008;14.088;2023-07-28T09:35:55;1.27;;;0.30;;
73264;SDS011;61493;51.008;14.088;2023-07-28T09:38:20;0.77;;;0.30;;
73264;SDS011;61493;51.008;14.088;2023-07-28T09:40:46;0.75;;;0.50;;
73264;SDS011;61493;51.008;14.088;2023-07-28T09:43:12;1.65;;;0.45;;
73264;SDS011;61493;51.008;14.088;2023-07-28T09:45:37;1.85;;;0.47;;
73264;SDS011;61493;51.008;14.088;2023-07-28T09:48:02;0.70;;;0.40;;
73264;SDS011;61493;51.008;14.088;2023-07-28T09:50:31;0.80;;;0.50;;
73264;SDS011;61493;51.008;14.088;2023-07-28T09:52:58;0.35;;;0.35;;
73264;SDS011;61493;51.008;14.088;2023-07-28T09:55:26;0.73;;;0.55;;
73264;SDS011;61493;51.008;14.088;2023-07-28T09:57:52;0.45;;;0.45;;
73264;SDS011;61493;51.008;14.088;2023-07-28T10:00:19;4.97;;;1.13;;
73264;SDS011;61493;51.008;14.088;2023-07-28T10:02:45;9.25;;;1.45;;
73264;SDS011;61493;51.008;14.088;2023-07-28T10:05:11;2.53;;;0.65;;
73264;SDS011;61493;51.008;14.088;2023-07-28T10:07:39;4.25;;;0.70;;
73264;SDS011;61493;51.008;14.088;2023-07-28T10:10:04;0.38;;;0.35;;
73264;SDS011;61493;51.008;14.088;2023-07-28T10:12:37;0.40;;;0.40;;
73264;SDS011;61493;51.008;14.088;2023-07-28T10:15:04;0.65;;;0.40;;
73264;SDS011;61493;51.008;14.088;2023-07-28T10:17:34;1.55;;;0.40;;
73264;SDS011;61493;51.008;14.088;2023-07-28T10:20:26;8.88;;;1.00;;
73264;SDS011;61493;51.008;14.088;2023-07-28T10:22:44;12.23;;;2.92;;
73264;SDS011;61493;51.008;14.088;2023-07-28T10:25:10;6.28;;;1.02;;
73264;SDS011;61493;51.008;14.088;2023-07-28T10:30:02;0.43;;;0.40;;
73264;SDS011;61493;51.008;14.088;2023-07-28T10:32:36;0.63;;;0.20;;
73264;SDS011;61493;51.008;14.088;2023-07-28T10:35:06;0.32;;;0.20;;
73264;SDS011;61493;51.008;14.088;2023-07-28T10:37:31;1.45;;;0.38;;
73264;SDS011;61493;51.008;14.088;2023-07-28T10:45:43;0.20;;;0.20;;
73264;SDS011;61493;51.008;14.088;2023-07-28T10:48:12;0.28;;;0.15;;
73264;SDS011;61493;51.008;14.088;2023-07-28T10:50:37;2.05;;;0.40;;
73264;SDS011;61493;51.008;14.088;2023-07-28T10:53:02;0.53;;;0.10;;
73264;SDS011;61493;51.008;14.088;2023-07-28T10:55:28;0.30;;;0.20;;
73264;SDS011;61493;51.008;14.088;2023-07-28T10:57:53;1.17;;;0.40;;
73264;SDS011;61493;51.008;14.088;2023-07-28T11:00:19;0.30;;;0.20;;
73264;SDS011;61493;51.008;14.088;2023-07-28T11:02:47;0.20;;;0.20;;
73264;SDS011;61493;51.008;14.088;2023-07-28T11:05:14;1.02;;;0.30;;
73264;SDS011;61493;51.008;14.088;2023-07-28T11:07:42;0.50;;;0.20;;
73264;SDS011;61493;51.008;14.088;2023-07-28T11:10:09;0.25;;;0.25;;
73264;SDS011;61493;51.008;14.088;2023-07-28T11:12:36;0.65;;;0.30;;
73264;SDS011;61493;51.008;14.088;2023-07-28T11:15:06;0.20;;;0.20;;
73264;SDS011;61493;51.008;14.088;2023-07-28T11:17:31;0.28;;;0.13;;
73264;SDS011;61493;51.008;14.088;2023-07-28T11:19:57;0.30;;;0.30;;
73264;SDS011;61493;51.008;14.088;2023-07-28T11:22:22;0.70;;;0.30;;
73264;SDS011;61493;51.008;14.088;2023-07-28T11:24:50;0.83;;;0.23;;
73264;SDS011;61493;51.008;14.088;2023-07-28T11:27:15;0.20;;;0.20;;
73264;SDS011;61493;51.008;14.088;2023-07-28T11:29:40;0.40;;;0.27;;
73264;SDS011;61493;51.008;14.088;2023-07-28T11:32:06;1.98;;;0.28;;
73264;SDS011;61493;51.008;14.088;2023-07-28T11:34:36;0.40;;;0.30;;
73264;SDS011;61493;51.008;14.088;2023-07-28T11:37:01;0.63;;;0.45;;
73264;SDS011;61493;51.008;14.088;2023-07-28T11:39:28;0.60;;;0.30;;
73264;SDS011;61493;51.008;14.088;2023-07-28T11:41:53;1.53;;;0.20;;
73264;SDS011;61493;51.008;14.088;2023-07-28T11:44:20;1.48;;;0.60;;
73264;SDS011;61493;51.008;14.088;2023-07-28T11:46:45;0.20;;;0.20;;
73264;SDS011;61493;51.008;14.088;2023-07-28T11:49:13;0.90;;;0.37;;
73264;SDS011;61493;51.008;14.088;2023-07-28T11:51:39;0.82;;;0.40;;
73264;SDS011;61493;51.008;14.088;2023-07-28T11:54:05;1.55;;;0.32;;
73264;SDS011;61493;51.008;14.088;2023-07-28T11:56:30;0.60;;;0.30;;
73264;SDS011;61493;51.008;14.088;2023-07-28T11:58:56;0.40;;;0.30;;
73264;SDS011;61493;51.008;14.088;2023-07-28T12:01:21;0.28;;;0.28;;
73264;SDS011;61493;51.008;14.088;2023-07-28T12:03:46;0.40;;;0.30;;
73264;SDS011;61493;51.008;14.088;2023-07-28T12:06:12;1.60;;;0.50;;
73264;SDS011;61493;51.008;14.088;2023-07-28T12:08:37;0.10;;;0.10;;
73264;SDS011;61493;51.008;14.088;2023-07-28T12:11:02;0.32;;;0.30;;
73264;SDS011;61493;51.008;14.088;2023-07-28T12:13:28;0.52;;;0.40;;
73264;SDS011;61493;51.008;14.088;2023-07-28T12:15:54;0.82;;;0.30;;
73264;SDS011;61493;51.008;14.088;2023-07-28T12:18:19;0.60;;;0.30;;
73264;SDS011;61493;51.008;14.088;2023-07-28T12:20:47;0.68;;;0.40;;
73264;SDS011;61493;51.008;14.088;2023-07-28T12:23:15;0.40;;;0.40;;
73264;SDS011;61493;51.008;14.088;2023-07-28T12:25:41;0.70;;;0.25;;
73264;SDS011;61493;51.008;14.088;2023-07-28T12:28:06;0.55;;;0.55;;
73264;SDS011;61493;51.008;14.088;2023-07-28T12:30:32;0.25;;;0.25;;
73264;SDS011;61493;51.008;14.088;2023-07-28T12:32:57;0.50;;;0.40;;
73264;SDS011;61493;51.008;14.088;2023-07-28T12:35:23;0.80;;;0.38;;
73264;SDS011;61493;51.008;14.088;2023-07-28T12:37:48;0.93;;;0.43;;
73264;SDS011;61493;51.008;14.088;2023-07-28T12:40:14;0.85;;;0.60;;
73264;SDS011;61493;51.008;14.088;2023-07-28T12:42:39;1.58;;;0.82;;
73264;SDS011;61493;51.008;14.088;2023-07-28T12:45:05;1.20;;;0.40;;
73264;SDS011;61493;51.008;14.088;2023-07-28T12:47:31;0.85;;;0.55;;
73264;SDS011;61493;51.008;14.088;2023-07-28T12:49:56;0.50;;;0.50;;
73264;SDS011;61493;51.008;14.088;2023-07-28T12:52:21;1.33;;;0.70;;
73264;SDS011;61493;51.008;14.088;2023-07-28T12:54:47;1.13;;;0.60;;
73264;SDS011;61493;51.008;14.088;2023-07-28T12:57:12;0.50;;;0.50;;
73264;SDS011;61493;51.008;14.088;2023-07-28T12:59:38;1.20;;;0.50;;
73264;SDS011;61493;51.008;14.088;2023-07-28T13:02:03;0.70;;;0.57;;
73264;SDS011;61493;51.008;14.088;2023-07-28T13:04:28;0.65;;;0.57;;
73264;SDS011;61493;51.008;14.088;2023-07-28T13:06:54;0.75;;;0.45;;
73264;SDS011;61493;51.008;14.088;2023-07-28T13:09:19;1.33;;;0.60;;
73264;SDS011;61493;51.008;14.088;2023-07-28T13:11:44;0.50;;;0.50;;
73264;SDS011;61493;51.008;14.088;2023-07-28T13:14:10;1.50;;;0.50;;
73264;SDS011;61493;51.008;14.088;2023-07-28T13:16:35;0.77;;;0.68;;
73264;SDS011;61493;51.008;14.088;2023-07-28T13:19:02;1.02;;;0.75;;
73264;SDS011;61493;51.008;14.088;2023-07-28T13:21:28;0.60;;;0.50;;
73264;SDS011;61493;51.008;14.088;2023-07-28T13:23:53;0.63;;;0.60;;
73264;SDS011;61493;51.008;14.088;2023-07-28T13:26:18;2.05;;;0.70;;
73264;SDS011;61493;51.008;14.088;2023-07-28T13:28:43;0.80;;;0.57;;
73264;SDS011;61493;51.008;14.088;2023-07-28T13:31:12;1.02;;;0.40;;
73264;SDS011;61493;51.008;14.088;2023-07-28T13:33:37;1.70;;;0.68;;
73264;SDS011;61493;51.008;14.088;2023-07-28T13:36:02;0.63;;;0.60;;
73264;SDS011;61493;51.008;14.088;2023-07-28T13:38:31;2.05;;;0.70;;
73264;SDS011;61493;51.008;14.088;2023-07-28T13:40:57;0.77;;;0.60;;
73264;SDS011;61493;51.008;14.088;2023-07-28T13:43:22;0.73;;;0.55;;
73264;SDS011;61493;51.008;14.088;2023-07-28T13:45:47;0.83;;;0.40;;
73264;SDS011;61493;51.008;14.088;2023-07-28T13:48:12;0.50;;;0.40;;
73264;SDS011;61493;51.008;14.088;2023-07-28T13:50:38;1.57;;;0.60;;
73264;SDS011;61493;51.008;14.088;2023-07-28T13:53:03;0.63;;;0.40;;
73264;SDS011;61493;51.008;14.088;2023-07-28T13:55:28;1.00;;;0.70;;
73264;SDS011;61493;51.008;14.088;2023-07-28T13:57:53;1.60;;;0.50;;
73264;SDS011;61493;51.008;14.088;2023-07-28T14:00:18;0.43;;;0.40;;
73264;SDS011;61493;51.008;14.088;2023-07-28T14:02:43;2.33;;;0.93;;
73264;SDS011;61493;51.008;14.088;2023-07-28T14:05:09;0.60;;;0.50;;
73264;SDS011;61493;51.008;14.088;2023-07-28T14:07:34;1.03;;;0.73;;
73264;SDS011;61493;51.008;14.088;2023-07-28T14:10:00;0.80;;;0.60;;
73264;SDS011;61493;51.008;14.088;2023-07-28T14:12:25;2.55;;;0.63;;
73264;SDS011;61493;51.008;14.088;2023-07-28T14:14:50;9.20;;;1.93;;
73264;SDS011;61493;51.008;14.088;2023-07-28T14:17:15;6.57;;;2.07;;
73264;SDS011;61493;51.008;14.088;2023-07-28T14:19:41;2.45;;;0.90;;
73264;SDS011;61493;51.008;14.088;2023-07-28T14:22:06;26.17;;;3.50;;
73264;SDS011;61493;51.008;14.088;2023-07-28T14:24:31;25.90;;;3.80;;
73264;SDS011;61493;51.008;14.088;2023-07-28T14:26:56;7.47;;;1.57;;
73264;SDS011;61493;51.008;14.088;2023-07-28T14:29:21;9.07;;;3.00;;
73264;SDS011;61493;51.008;14.088;2023-07-28T14:31:47;9.70;;;1.83;;
73264;SDS011;61493;51.008;14.088;2023-07-28T14:34:12;4.93;;;1.08;;
73264;SDS011;61493;51.008;14.088;2023-07-28T14:36:38;1.13;;;0.77;;
73264;SDS011;61493;51.008;14.088;2023-07-28T14:39:03;1.73;;;0.60;;